Time;durP1;ratioP1;P1;durP2;ratioP2;P2;SDS_P1;SDS_P2;PMS_P1;PMS_P2;Temp;Humidity;BMP_temperature;BMP_pressure;BME280_temperature;BME280_humidity;BME280_pressure;Samples;Min_cycle;Max_cycle;Signal;HPM_P1;HPM_P2
2022/03/23 00:01:12;;;;;;;67.47;37.17;;;;;;;;;;5094646;28;20059;-62
2022/03/23 00:03:38;;;;;;;66.60;35.90;;;;;;;;;;5094983;28;20024;-62
2022/03/23 00:06:04;;;;;;;65.30;36.25;;;;;;;;;;5094187;28;20063;-64
2022/03/23 00:08:29;;;;;;;63.80;35.75;;;;;;;;;;5094649;28;20039;-62
2022/03/23 00:10:55;;;;;;;63.10;34.65;;;;;;;;;;5094675;28;20132;-63
2022/03/23 00:13:20;;;;;;;56.42;33.33;;;;;;;;;;5094356;28;20047;-63
2022/03/23 00:15:46;;;;;;;61.63;35.15;;;;;;;;;;5094461;28;20043;-62
2022/03/23 00:18:12;;;;;;;62.85;34.22;;;;;;;;;;5094090;28;20063;-62
2022/03/23 00:20:38;;;;;;;61.15;34.28;;;;;;;;;;5094288;28;20072;-63
2022/03/23 00:23:04;;;;;;;59.80;32.38;;;;;;;;;;5059572;28;20362;-63
2022/03/23 00:25:30;;;;;;;57.08;31.65;;;;;;;;;;5094473;28;20035;-63
2022/03/23 00:27:56;;;;;;;59.42;33.00;;;;;;;;;;5094377;28;20066;-63
2022/03/23 00:30:23;;;;;;;61.13;32.53;;;;;;;;;;5094234;28;20063;-63
2022/03/23 00:32:50;;;;;;;56.75;31.58;;;;;;;;;;5076061;28;20028;-63
2022/03/23 00:35:15;;;;;;;53.47;30.55;;;;;;;;;;5068987;28;20075;-62
2022/03/23 00:37:42;;;;;;;55.75;30.75;;;;;;;;;;5074026;28;20072;-62
2022/03/23 00:40:08;;;;;;;60.17;33.42;;;;;;;;;;5073686;28;20044;-62
2022/03/23 00:42:33;;;;;;;60.33;32.55;;;;;;;;;;5055817;28;20020;-63
2022/03/23 00:44:59;;;;;;;56.50;31.55;;;;;;;;;;5055454;28;20025;-63
2022/03/23 00:47:24;;;;;;;62.85;33.90;;;;;;;;;;5073823;28;20025;-73
2022/03/23 00:49:50;;;;;;;61.55;32.70;;;;;;;;;;5055523;28;20127;-73
2022/03/23 00:52:15;;;;;;;60.28;31.83;;;;;;;;;;5073584;28;20040;-73
2022/03/23 00:54:41;;;;;;;56.05;31.20;;;;;;;;;;5038787;28;20044;-72
2022/03/23 00:57:07;;;;;;;57.45;31.73;;;;;;;;;;5055433;28;20029;-73
2022/03/23 00:59:33;;;;;;;60.00;31.55;;;;;;;;;;5073113;28;20040;-72
2022/03/23 01:01:58;;;;;;;57.80;30.05;;;;;;;;;;5073530;28;20029;-73
2022/03/23 01:04:24;;;;;;;52.25;30.48;;;;;;;;;;5073506;28;20040;-72
2022/03/23 01:06:52;;;;;;;53.47;28.90;;;;;;;;;;5073436;28;20021;-73
2022/03/23 01:09:22;;;;;;;49.40;28.75;;;;;;;;;;5073250;28;20032;-73
2022/03/23 01:11:51;;;;;;;47.07;27.07;;;;;;;;;;5073462;28;20436;-73
2022/03/23 01:14:20;;;;;;;46.50;26.33;;;;;;;;;;5055133;28;20620;-73
2022/03/23 01:16:46;;;;;;;46.63;25.67;;;;;;;;;;5073355;28;20032;-63
2022/03/23 01:19:13;;;;;;;47.83;26.35;;;;;;;;;;5055260;28;20406;-63
2022/03/23 01:21:39;;;;;;;44.90;25.55;;;;;;;;;;5073298;28;20032;-72
2022/03/23 01:24:06;;;;;;;43.05;25.60;;;;;;;;;;5073333;28;20056;-71
2022/03/23 01:26:32;;;;;;;43.72;24.45;;;;;;;;;;5073193;28;20024;-71
2022/03/23 01:28:57;;;;;;;43.83;24.63;;;;;;;;;;5072958;28;20075;-71
2022/03/23 01:31:23;;;;;;;40.20;23.55;;;;;;;;;;5073189;28;20028;-72
2022/03/23 01:33:48;;;;;;;43.80;23.70;;;;;;;;;;5073313;28;20127;-71
2022/03/23 01:36:14;;;;;;;40.35;24.50;;;;;;;;;;5054515;28;20083;-71
2022/03/23 01:38:39;;;;;;;38.70;23.05;;;;;;;;;;5073239;28;20048;-72
2022/03/23 01:41:05;;;;;;;42.80;23.92;;;;;;;;;;5055307;28;20040;-72
2022/03/23 01:43:33;;;;;;;40.63;22.83;;;;;;;;;;5072979;28;20112;-72
2022/03/23 01:46:01;;;;;;;39.92;23.38;;;;;;;;;;5054939;28;20031;-72
2022/03/23 01:48:26;;;;;;;37.13;22.65;;;;;;;;;;5073190;28;20032;-72
2022/03/23 01:50:55;;;;;;;39.58;23.17;;;;;;;;;;5055140;28;20028;-72
2022/03/23 01:53:21;;;;;;;40.13;23.17;;;;;;;;;;5055117;28;20086;-72
2022/03/23 01:55:47;;;;;;;38.85;22.45;;;;;;;;;;5054990;28;20032;-72
2022/03/23 01:58:13;;;;;;;42.35;23.08;;;;;;;;;;5072657;28;20072;-72
2022/03/23 02:00:38;;;;;;;37.33;21.98;;;;;;;;;;5072959;28;20071;-72
2022/03/23 02:03:05;;;;;;;33.92;21.65;;;;;;;;;;5038544;28;20032;-72
2022/03/23 02:05:32;;;;;;;33.88;21.10;;;;;;;;;;5038255;28;20048;-73
2022/03/23 02:07:58;;;;;;;35.42;20.75;;;;;;;;;;5056948;28;20078;-72
2022/03/23 02:10:26;;;;;;;36.55;20.58;;;;;;;;;;5076703;28;20050;-71
2022/03/23 02:13:09;;;;;;;35.33;21.45;;;;;;;;;;5044456;28;20043;-70
2022/03/23 02:15:35;;;;;;;36.28;20.90;;;;;;;;;;5058778;28;20068;-71
2022/03/23 02:18:02;;;;;;;32.88;20.15;;;;;;;;;;5058488;28;20428;-71
2022/03/23 02:20:27;;;;;;;34.88;20.77;;;;;;;;;;5058184;28;20040;-71
2022/03/23 02:22:53;;;;;;;32.85;20.60;;;;;;;;;;5058614;28;20460;-71
2022/03/23 02:25:23;;;;;;;35.10;21.45;;;;;;;;;;5058641;28;20075;-72
2022/03/23 02:27:49;;;;;;;35.75;22.00;;;;;;;;;;5076013;28;20040;-71
2022/03/23 02:30:14;;;;;;;34.53;20.77;;;;;;;;;;5076001;28;20040;-71
2022/03/23 02:32:40;;;;;;;34.55;20.80;;;;;;;;;;5076067;28;20475;-71
2022/03/23 02:35:07;;;;;;;33.28;21.35;;;;;;;;;;5057597;28;20047;-71
2022/03/23 02:37:35;;;;;;;32.95;20.35;;;;;;;;;;5076335;28;20093;-71
2022/03/23 02:40:00;;;;;;;35.95;20.83;;;;;;;;;;5076058;28;20048;-71
2022/03/23 02:42:27;;;;;;;36.63;20.70;;;;;;;;;;5075842;28;20474;-72
2022/03/23 02:44:53;;;;;;;36.80;19.90;;;;;;;;;;5076010;28;20060;-71
2022/03/23 02:47:19;;;;;;;35.70;21.15;;;;;;;;;;5075731;28;20163;-72
2022/03/23 02:49:44;;;;;;;35.88;20.98;;;;;;;;;;5075616;28;20126;-72
2022/03/23 02:52:10;;;;;;;32.20;21.08;;;;;;;;;;5075738;28;20475;-63
2022/03/23 03:07:03;;;;;;;35.63;20.67;;;;;;;;;;5075907;28;20043;-72
2022/03/23 03:09:29;;;;;;;29.77;19.23;;;;;;;;;;5075553;28;20028;-71
2022/03/23 03:11:54;;;;;;;26.42;17.20;;;;;;;;;;5075457;28;20040;-71
2022/03/23 03:14:20;;;;;;;29.35;17.88;;;;;;;;;;5075330;28;20037;-70
2022/03/23 03:16:46;;;;;;;25.90;17.38;;;;;;;;;;5075445;28;20031;-62
2022/03/23 03:19:12;;;;;;;30.65;18.98;;;;;;;;;;5075163;28;20040;-62
2022/03/23 03:21:38;;;;;;;33.85;19.45;;;;;;;;;;5075390;28;20372;-62
2022/03/23 03:24:04;;;;;;;33.67;20.33;;;;;;;;;;5057320;28;20403;-62
2022/03/23 03:26:30;;;;;;;30.48;20.63;;;;;;;;;;5057517;28;20032;-63
2022/03/23 03:28:56;;;;;;;31.38;19.70;;;;;;;;;;5057247;28;20444;-63
2022/03/23 03:31:22;;;;;;;33.65;19.73;;;;;;;;;;5075021;28;20025;-63
2022/03/23 03:33:48;;;;;;;37.75;21.33;;;;;;;;;;5075006;28;20075;-63
2022/03/23 03:36:13;;;;;;;34.53;20.52;;;;;;;;;;5071386;28;20486;-63
2022/03/23 03:38:40;;;;;;;31.73;20.58;;;;;;;;;;5095075;28;20086;-63
2022/03/23 03:41:05;;;;;;;36.65;20.50;;;;;;;;;;5095318;28;20118;-63
2022/03/23 03:43:34;;;;;;;35.33;20.40;;;;;;;;;;5095228;28;20040;-62
2022/03/23 03:45:59;;;;;;;33.08;19.52;;;;;;;;;;5095000;28;20400;-62
2022/03/23 03:48:25;;;;;;;31.48;19.58;;;;;;;;;;5094817;28;20044;-62
2022/03/23 03:50:50;;;;;;;29.38;17.70;;;;;;;;;;5094935;28;20039;-71
2022/03/23 03:53:16;;;;;;;26.90;17.40;;;;;;;;;;5094744;28;20028;-71
2022/03/23 03:55:42;;;;;;;31.13;17.10;;;;;;;;;;5094694;28;20028;-71
2022/03/23 03:58:08;;;;;;;30.63;19.10;;;;;;;;;;5094771;28;20347;-71
2022/03/23 04:00:34;;;;;;;29.80;18.67;;;;;;;;;;5094799;28;20024;-72
2022/03/23 04:03:00;;;;;;;32.78;19.30;;;;;;;;;;5094506;28;20039;-72
2022/03/23 04:05:28;;;;;;;31.40;19.00;;;;;;;;;;5094623;28;20067;-73
2022/03/23 04:07:54;;;;;;;29.75;18.00;;;;;;;;;;5094477;28;20195;-72
2022/03/23 04:10:20;;;;;;;29.67;17.83;;;;;;;;;;5094480;28;20412;-72
2022/03/23 04:12:46;;;;;;;30.52;18.13;;;;;;;;;;5076280;28;20438;-72
2022/03/23 04:15:12;;;;;;;25.50;16.75;;;;;;;;;;5076147;28;20115;-72
2022/03/23 04:17:38;;;;;;;30.95;16.63;;;;;;;;;;5093978;28;20047;-72
2022/03/23 04:20:04;;;;;;;27.45;16.75;;;;;;;;;;5094311;28;20028;-72
2022/03/23 04:22:29;;;;;;;25.38;16.23;;;;;;;;;;5094255;28;20063;-72
2022/03/23 04:24:57;;;;;;;28.40;15.38;;;;;;;;;;5094244;28;20593;-72
2022/03/23 04:27:22;;;;;;;25.75;16.92;;;;;;;;;;5094269;28;20067;-72
2022/03/23 04:29:47;;;;;;;25.50;15.68;;;;;;;;;;5093709;28;20058;-72
2022/03/23 04:32:13;;;;;;;25.35;16.60;;;;;;;;;;5094187;28;20486;-73
2022/03/23 04:34:39;;;;;;;26.33;16.05;;;;;;;;;;5093757;28;20024;-63
2022/03/23 04:37:04;;;;;;;26.02;16.13;;;;;;;;;;5094093;28;20052;-63
2022/03/23 04:39:30;;;;;;;27.33;16.83;;;;;;;;;;5094118;28;20115;-63
2022/03/23 04:41:57;;;;;;;41.40;18.15;;;;;;;;;;5093642;28;20036;-72
2022/03/23 04:44:22;;;;;;;28.85;16.08;;;;;;;;;;5093919;28;20032;-71
2022/03/23 04:46:48;;;;;;;26.35;15.27;;;;;;;;;;5076046;28;20032;-71
2022/03/23 04:49:14;;;;;;;25.20;15.82;;;;;;;;;;5093861;28;20050;-72
2022/03/23 04:51:40;;;;;;;23.88;15.73;;;;;;;;;;5093838;28;20047;-70
2022/03/23 04:54:06;;;;;;;24.23;15.77;;;;;;;;;;5075854;28;20042;-71
2022/03/23 04:56:32;;;;;;;25.58;15.93;;;;;;;;;;5093687;28;20031;-71
2022/03/23 04:58:59;;;;;;;26.92;17.27;;;;;;;;;;5093628;28;20107;-72
2022/03/23 05:01:24;;;;;;;26.60;17.23;;;;;;;;;;5093582;28;20130;-71
2022/03/23 05:03:50;;;;;;;27.80;16.85;;;;;;;;;;5093834;28;20111;-71
2022/03/23 05:06:15;;;;;;;22.15;14.00;;;;;;;;;;5093688;28;20041;-71
2022/03/23 05:08:44;;;;;;;21.38;13.45;;;;;;;;;;5093146;28;20450;-72
2022/03/23 05:11:10;;;;;;;26.15;17.08;;;;;;;;;;5093420;28;20486;-72
2022/03/23 05:13:35;;;;;;;26.67;18.58;;;;;;;;;;5093430;28;20036;-72
2022/03/23 05:16:00;;;;;;;34.13;21.10;;;;;;;;;;5093421;28;20032;-73
2022/03/23 05:18:26;;;;;;;30.98;19.35;;;;;;;;;;5093328;28;20027;-73
2022/03/23 05:20:51;;;;;;;27.60;18.55;;;;;;;;;;5093245;28;20073;-73
2022/03/23 05:23:17;;;;;;;28.85;19.50;;;;;;;;;;5093551;28;20036;-73
2022/03/23 05:25:42;;;;;;;32.05;19.58;;;;;;;;;;5093551;28;20039;-74
2022/03/23 05:28:08;;;;;;;32.13;20.00;;;;;;;;;;5093640;28;20078;-73
2022/03/23 05:30:34;;;;;;;31.65;19.92;;;;;;;;;;5093072;28;20042;-70
2022/03/23 05:33:01;;;;;;;34.35;21.35;;;;;;;;;;5093343;28;20118;-63
2022/03/23 05:35:27;;;;;;;35.80;23.55;;;;;;;;;;5092317;28;20397;-63
2022/03/23 05:37:53;;;;;;;36.70;23.55;;;;;;;;;;5093760;28;20127;-63
2022/03/23 05:40:20;;;;;;;36.17;24.63;;;;;;;;;;5093272;28;20040;-63
2022/03/23 05:42:45;;;;;;;41.65;26.42;;;;;;;;;;5095120;28;20024;-62
2022/03/23 05:45:11;;;;;;;34.10;21.52;;;;;;;;;;5097027;28;20086;-62
2022/03/23 05:47:37;;;;;;;29.83;19.88;;;;;;;;;;5078934;28;20039;-62
2022/03/23 05:50:04;;;;;;;35.95;21.65;;;;;;;;;;5097377;28;20115;-63
2022/03/23 05:52:30;;;;;;;46.38;29.98;;;;;;;;;;5078842;28;20027;-63
2022/03/23 05:54:55;;;;;;;57.15;35.13;;;;;;;;;;5097271;28;20497;-71
2022/03/23 05:57:20;;;;;;;51.85;32.03;;;;;;;;;;5097082;28;20024;-71
2022/03/23 05:59:48;;;;;;;43.45;27.45;;;;;;;;;;5096990;28;20044;-71
2022/03/23 06:02:13;;;;;;;47.30;28.13;;;;;;;;;;5096998;28;20020;-71
2022/03/23 06:04:39;;;;;;;37.97;23.55;;;;;;;;;;5097125;28;20474;-71
2022/03/23 06:07:04;;;;;;;28.98;19.10;;;;;;;;;;5096991;28;20107;-71
2022/03/23 06:09:29;;;;;;;25.60;16.35;;;;;;;;;;5097116;28;20036;-71
2022/03/23 06:11:57;;;;;;;25.55;15.65;;;;;;;;;;5078898;28;20064;-72
2022/03/23 06:14:23;;;;;;;31.90;18.20;;;;;;;;;;5096659;28;20107;-71
2022/03/23 06:16:48;;;;;;;36.30;20.50;;;;;;;;;;5096584;28;20055;-71
2022/03/23 06:19:14;;;;;;;32.60;19.58;;;;;;;;;;5096395;28;20385;-72
2022/03/23 06:21:39;;;;;;;33.72;20.73;;;;;;;;;;5096751;28;20040;-72
2022/03/23 06:24:05;;;;;;;36.72;21.17;;;;;;;;;;5078337;28;20382;-69
2022/03/23 06:26:30;;;;;;;32.08;21.95;;;;;;;;;;5078367;28;20108;-69
2022/03/23 06:28:56;;;;;;;31.00;21.75;;;;;;;;;;5095815;28;20146;-69
2022/03/23 06:31:22;;;;;;;36.50;23.48;;;;;;;;;;5078212;28;20032;-69
2022/03/23 06:33:50;;;;;;;34.13;22.65;;;;;;;;;;5096245;28;20032;-69
2022/03/23 06:36:15;;;;;;;34.50;22.30;;;;;;;;;;5095839;28;20048;-70
2022/03/23 06:38:41;;;;;;;35.53;23.35;;;;;;;;;;5096418;28;20040;-69
2022/03/23 06:41:07;;;;;;;39.90;27.98;;;;;;;;;;5096446;28;20028;-69
2022/03/23 06:43:33;;;;;;;36.03;23.63;;;;;;;;;;5095881;28;20032;-70
2022/03/23 06:45:58;;;;;;;40.05;23.90;;;;;;;;;;5077872;28;20492;-69
2022/03/23 06:48:24;;;;;;;36.88;23.52;;;;;;;;;;5077735;28;20040;-69
2022/03/23 06:50:49;;;;;;;37.53;23.30;;;;;;;;;;5095983;28;20086;-69
2022/03/23 06:53:15;;;;;;;40.83;24.23;;;;;;;;;;5095493;28;20032;-69
2022/03/23 06:55:40;;;;;;;44.20;25.50;;;;;;;;;;5095919;28;20038;-69
2022/03/23 06:58:06;;;;;;;44.80;26.80;;;;;;;;;;5095815;28;20567;-69
2022/03/23 07:00:31;;;;;;;48.85;28.00;;;;;;;;;;5095818;28;20543;-73
2022/03/23 07:02:57;;;;;;;44.55;26.05;;;;;;;;;;5095457;28;20040;-73
2022/03/23 07:05:22;;;;;;;43.25;25.10;;;;;;;;;;5095712;28;20085;-73
2022/03/23 07:10:34;;;;;;;40.05;24.30;;;;;;;;;;5096003;28;20071;-71
2022/03/23 07:13:00;;;;;;;40.63;22.77;;;;;;;;;;5095746;28;20039;-70
2022/03/23 07:15:25;;;;;;;35.67;22.15;;;;;;;;;;5095841;28;20425;-70
2022/03/23 07:17:51;;;;;;;33.75;18.20;;;;;;;;;;5095413;28;20381;-70
2022/03/23 07:20:18;;;;;;;27.55;17.40;;;;;;;;;;5095385;28;20039;-70
2022/03/23 07:22:43;;;;;;;39.35;22.92;;;;;;;;;;5095486;28;20063;-70
2022/03/23 07:25:09;;;;;;;35.40;21.90;;;;;;;;;;5076869;28;20068;-70
2022/03/23 07:27:35;;;;;;;37.58;23.10;;;;;;;;;;5095459;28;20036;-70
2022/03/23 07:30:00;;;;;;;23.90;14.95;;;;;;;;;;5095268;28;20047;-70
2022/03/23 07:32:26;;;;;;;27.30;16.67;;;;;;;;;;5095112;28;20043;-70
2022/03/23 07:34:51;;;;;;;29.70;15.88;;;;;;;;;;5094914;28;20036;-70
2022/03/23 07:37:17;;;;;;;22.77;14.60;;;;;;;;;;5094660;28;20042;-68
2022/03/23 07:39:43;;;;;;;21.60;13.38;;;;;;;;;;5094961;28;20082;-68
2022/03/23 07:42:09;;;;;;;24.02;15.68;;;;;;;;;;5095138;28;20031;-68
2022/03/23 07:44:34;;;;;;;25.25;15.77;;;;;;;;;;5077087;28;20036;-68
2022/03/23 07:47:00;;;;;;;27.50;17.23;;;;;;;;;;5076882;28;20035;-69
2022/03/23 07:49:26;;;;;;;29.98;18.13;;;;;;;;;;5094933;28;20044;-68
2022/03/23 07:51:51;;;;;;;28.63;17.88;;;;;;;;;;5094819;28;20032;-68
2022/03/23 07:54:17;;;;;;;27.52;17.38;;;;;;;;;;5095094;28;20040;-68
2022/03/23 07:56:43;;;;;;;28.13;17.25;;;;;;;;;;5094898;28;20454;-69
2022/03/23 07:59:08;;;;;;;25.23;16.30;;;;;;;;;;5094356;28;20051;-68
2022/03/23 08:01:34;;;;;;;28.20;15.52;;;;;;;;;;5094539;28;20031;-68
2022/03/23 08:04:00;;;;;;;20.48;12.23;;;;;;;;;;5094779;28;20032;-68
2022/03/23 08:06:26;;;;;;;21.63;14.18;;;;;;;;;;5094203;28;20434;-68
2022/03/23 08:08:52;;;;;;;24.25;13.75;;;;;;;;;;5094170;28;20121;-68
2022/03/23 08:11:17;;;;;;;15.35;9.57;;;;;;;;;;5076559;28;20026;-68
2022/03/23 08:13:43;;;;;;;17.27;9.98;;;;;;;;;;5094362;28;20394;-68
2022/03/23 08:16:09;;;;;;;13.38;8.70;;;;;;;;;;5094400;28;20045;-68
2022/03/23 08:18:35;;;;;;;16.85;10.02;;;;;;;;;;5093956;28;20047;-68
2022/03/23 08:21:01;;;;;;;19.23;10.40;;;;;;;;;;5075401;28;20055;-68
2022/03/23 08:23:29;;;;;;;14.18;9.18;;;;;;;;;;5094382;28;20064;-68
2022/03/23 08:25:55;;;;;;;16.88;9.77;;;;;;;;;;5094494;28;20452;-68
2022/03/23 08:28:20;;;;;;;19.30;10.93;;;;;;;;;;5094013;28;20036;-69
2022/03/23 08:30:46;;;;;;;19.02;11.05;;;;;;;;;;5093975;28;20039;-69
2022/03/23 08:33:11;;;;;;;15.98;10.07;;;;;;;;;;5093904;28;20042;-68
2022/03/23 08:35:37;;;;;;;14.73;9.02;;;;;;;;;;5066197;28;20044;-69
2022/03/23 08:38:03;;;;;;;17.58;10.60;;;;;;;;;;5073737;28;20391;-68
2022/03/23 08:40:29;;;;;;;18.48;9.75;;;;;;;;;;5073501;28;20032;-69
2022/03/23 08:42:58;;;;;;;21.05;12.05;;;;;;;;;;5055825;28;20036;-68
2022/03/23 08:45:24;;;;;;;18.40;10.43;;;;;;;;;;5073500;28;20063;-69
2022/03/23 08:47:50;;;;;;;17.27;10.32;;;;;;;;;;5073826;28;20043;-69
2022/03/23 08:50:16;;;;;;;13.88;9.07;;;;;;;;;;5073814;28;20025;-69
2022/03/23 08:52:42;;;;;;;12.48;8.13;;;;;;;;;;5073705;28;20483;-69
2022/03/23 08:55:09;;;;;;;10.45;7.45;;;;;;;;;;5073618;28;20029;-69
2022/03/23 08:57:35;;;;;;;12.98;7.78;;;;;;;;;;5073293;28;20037;-69
2022/03/23 09:00:00;;;;;;;22.48;11.02;;;;;;;;;;5055682;28;20166;-68
2022/03/23 09:02:26;;;;;;;17.23;8.07;;;;;;;;;;5073323;28;20044;-68
2022/03/23 09:04:51;;;;;;;13.55;8.18;;;;;;;;;;5073202;28;20098;-69
2022/03/23 09:07:17;;;;;;;19.08;9.05;;;;;;;;;;5073268;28;20032;-68
2022/03/23 09:09:42;;;;;;;16.02;9.27;;;;;;;;;;5073625;28;20099;-68
2022/03/23 09:12:09;;;;;;;14.40;8.77;;;;;;;;;;5073102;28;20040;-68
2022/03/23 09:14:35;;;;;;;13.05;7.55;;;;;;;;;;5073351;28;20037;-69
2022/03/23 09:17:01;;;;;;;12.32;7.95;;;;;;;;;;5055116;28;20036;-69
2022/03/23 09:19:27;;;;;;;12.80;8.38;;;;;;;;;;5073285;28;20128;-68
2022/03/23 09:21:53;;;;;;;13.00;7.57;;;;;;;;;;5073566;28;20036;-69
2022/03/23 09:24:19;;;;;;;11.93;7.75;;;;;;;;;;5073334;28;20025;-68
2022/03/23 09:26:45;;;;;;;10.40;6.80;;;;;;;;;;5073142;28;20123;-68
2022/03/23 09:29:10;;;;;;;8.73;6.50;;;;;;;;;;5072916;28;20033;-69
2022/03/23 09:31:36;;;;;;;9.20;6.18;;;;;;;;;;5073109;28;20055;-68
2022/03/23 09:34:05;;;;;;;9.13;6.45;;;;;;;;;;5073115;28;20085;-69
2022/03/23 09:39:16;;;;;;;9.00;5.95;;;;;;;;;;5092818;28;20093;-69
2022/03/23 09:41:43;;;;;;;11.50;6.25;;;;;;;;;;5093042;28;20483;-62
2022/03/23 09:44:09;;;;;;;10.45;6.38;;;;;;;;;;5075425;28;20036;-62
2022/03/23 09:46:35;;;;;;;10.35;6.82;;;;;;;;;;5093208;28;20389;-63
2022/03/23 09:49:02;;;;;;;7.63;6.07;;;;;;;;;;5075211;28;20604;-62
2022/03/23 09:51:30;;;;;;;11.68;6.22;;;;;;;;;;5075069;28;20393;-62
2022/03/23 09:53:57;;;;;;;7.20;4.97;;;;;;;;;;5093306;28;20046;-62
2022/03/23 09:56:22;;;;;;;7.90;4.97;;;;;;;;;;5093330;28;20032;-62
2022/03/23 09:58:48;;;;;;;9.50;5.75;;;;;;;;;;5093108;28;20093;-62
2022/03/23 10:01:29;;;;;;;9.77;6.03;;;;;;;;;;5074671;28;20077;-62
2022/03/23 10:04:06;;;;;;;8.00;5.72;;;;;;;;;;5093052;28;20039;-62
2022/03/23 10:06:59;;;;;;;5.78;4.38;;;;;;;;;;5092972;28;20036;-61
2022/03/23 10:09:30;;;;;;;5.25;4.25;;;;;;;;;;5069940;28;20044;-62
2022/03/23 10:12:08;;;;;;;7.80;4.65;;;;;;;;;;5074679;28;20410;-61
2022/03/23 10:14:52;;;;;;;6.88;4.70;;;;;;;;;;5092882;28;20036;-62
2022/03/23 10:17:36;;;;;;;4.25;3.88;;;;;;;;;;5092766;28;20398;-62
2022/03/23 10:20:03;;;;;;;7.63;4.50;;;;;;;;;;5092816;28;20470;-62
2022/03/23 10:22:28;;;;;;;7.50;4.50;;;;;;;;;;5075141;28;20113;-62
2022/03/23 10:24:55;;;;;;;4.68;4.15;;;;;;;;;;5092754;28;20078;-62
2022/03/23 10:27:23;;;;;;;5.95;4.38;;;;;;;;;;5092627;28;20024;-62
2022/03/23 10:29:52;;;;;;;6.32;4.60;;;;;;;;;;5096166;28;20044;-62
2022/03/23 10:32:17;;;;;;;6.63;4.43;;;;;;;;;;5096496;28;20035;-62
2022/03/23 10:34:54;;;;;;;5.82;4.40;;;;;;;;;;5077765;28;20033;-62
2022/03/23 10:37:29;;;;;;;4.55;3.90;;;;;;;;;;5096267;28;20085;-62
2022/03/23 10:39:56;;;;;;;6.63;4.22;;;;;;;;;;5096443;28;20417;-62
2022/03/23 10:42:22;;;;;;;5.13;3.90;;;;;;;;;;5096304;28;20024;-61
2022/03/23 10:44:48;;;;;;;4.75;4.00;;;;;;;;;;5078187;28;20032;-61
2022/03/23 10:47:27;;;;;;;8.05;4.13;;;;;;;;;;5077920;28;20036;-62
2022/03/23 10:49:52;;;;;;;5.07;4.35;;;;;;;;;;5077899;28;20028;-62
2022/03/23 10:52:18;;;;;;;6.38;4.28;;;;;;;;;;5096011;28;20520;-63
2022/03/23 10:54:53;;;;;;;6.72;4.90;;;;;;;;;;5096261;28;20043;-62
2022/03/23 10:57:18;;;;;;;14.20;6.85;;;;;;;;;;5095951;28;20051;-63
2022/03/23 10:59:47;;;;;;;9.52;5.72;;;;;;;;;;5077505;28;20020;-60
2022/03/23 11:02:13;;;;;;;6.90;4.45;;;;;;;;;;5077524;28;20036;-60
2022/03/23 11:04:46;;;;;;;6.80;4.20;;;;;;;;;;5096103;28;20023;-60
2022/03/23 11:07:41;;;;;;;5.15;3.92;;;;;;;;;;5096030;28;20561;-60
2022/03/23 11:15:47;;;;;;;12.35;5.82;;;;;;;;;;5095759;28;20040;-60
2022/03/23 11:18:17;;;;;;;10.52;6.00;;;;;;;;;;5077471;28;20028;-61
2022/03/23 11:20:43;;;;;;;7.83;5.33;;;;;;;;;;5077184;28;20390;-60
2022/03/23 11:23:18;;;;;;;14.30;5.35;;;;;;;;;;5076439;28;20258;-60
2022/03/23 11:25:48;;;;;;;9.75;5.40;;;;;;;;;;5095307;28;20028;-60
2022/03/23 11:28:15;;;;;;;7.70;5.28;;;;;;;;;;5095457;28;20054;-60
2022/03/23 11:30:40;;;;;;;7.13;4.45;;;;;;;;;;5095513;28;20453;-60
2022/03/23 11:33:07;;;;;;;8.40;4.18;;;;;;;;;;5095230;28;20063;-61
2022/03/23 11:35:34;;;;;;;7.15;4.60;;;;;;;;;;5094893;28;20059;-61
2022/03/23 11:38:00;;;;;;;6.25;4.72;;;;;;;;;;5095268;28;20040;-61
2022/03/23 11:40:26;;;;;;;9.13;5.10;;;;;;;;;;5094425;28;20043;-60
2022/03/23 11:42:53;;;;;;;6.28;4.80;;;;;;;;;;5095072;28;20075;-60
2022/03/23 11:45:19;;;;;;;7.82;4.15;;;;;;;;;;5095071;28;20020;-61
2022/03/23 11:47:55;;;;;;;9.52;5.32;;;;;;;;;;5094895;28;20126;-61
2022/03/23 11:50:30;;;;;;;11.15;5.43;;;;;;;;;;5094937;28;20582;-61
2022/03/23 11:53:02;;;;;;;8.32;5.25;;;;;;;;;;5076762;28;20398;-61
2022/03/23 11:55:42;;;;;;;5.97;4.15;;;;;;;;;;5059486;28;20036;-61
2022/03/23 11:58:23;;;;;;;;;;;;;;;;;;5095309;28;20044;-61
2022/03/23 12:00:51;;;;;;;7.75;4.60;;;;;;;;;;5094695;28;19907;-61
2022/03/23 12:03:34;;;;;;;4.97;3.75;;;;;;;;;;5094634;28;20110;-61
2022/03/23 12:06:06;;;;;;;7.18;3.38;;;;;;;;;;5094588;28;20044;-61
2022/03/23 12:08:50;;;;;;;5.50;3.33;;;;;;;;;;5094695;28;20071;-61
2022/03/23 12:11:32;;;;;;;8.02;4.97;;;;;;;;;;5094842;28;20044;-60
2022/03/23 12:13:58;;;;;;;6.57;3.47;;;;;;;;;;5094373;28;20048;-60
2022/03/23 12:16:44;;;;;;;5.75;4.40;;;;;;;;;;5076500;28;20466;-60
2022/03/23 12:19:11;;;;;;;6.47;4.68;;;;;;;;;;5094288;28;20043;-60
2022/03/23 12:21:55;;;;;;;9.68;4.82;;;;;;;;;;5076241;28;20024;-60
2022/03/23 12:24:32;;;;;;;5.53;3.97;;;;;;;;;;5076216;28;20040;-60
2022/03/23 12:26:59;;;;;;;14.05;5.00;;;;;;;;;;5076081;28;20036;-60
2022/03/23 12:29:29;;;;;;;7.03;4.32;;;;;;;;;;5094107;28;20039;-60
2022/03/23 12:32:02;;;;;;;6.90;4.88;;;;;;;;;;5093886;28;20039;-60
2022/03/23 12:34:28;;;;;;;6.85;3.78;;;;;;;;;;5094066;28;20044;-60
2022/03/23 12:36:57;;;;;;;7.78;4.30;;;;;;;;;;5094163;28;20054;-64
2022/03/23 12:39:33;;;;;;;7.45;4.47;;;;;;;;;;5094042;28;20040;-64
2022/03/23 12:42:03;;;;;;;7.00;4.57;;;;;;;;;;5093421;28;20501;-64
2022/03/23 12:44:29;;;;;;;5.32;4.05;;;;;;;;;;5075826;28;20066;-72
2022/03/23 12:47:00;;;;;;;5.88;3.95;;;;;;;;;;5059059;28;20035;-66
2022/03/23 12:57:55;;;;;;;;;;;;;;;;;;5075754;28;20040;-66
2022/03/23 13:00:37;;;;;;;7.90;5.82;;;;;;;;;;5093747;28;19994;-67
2022/03/23 13:03:06;;;;;;;5.55;4.32;;;;;;;;;;5093598;28;20052;-67
2022/03/23 13:05:38;;;;;;;6.57;3.47;;;;;;;;;;5093780;28;20028;-66
2022/03/23 13:08:27;;;;;;;5.40;3.78;;;;;;;;;;5093781;28;20036;-66
2022/03/23 13:10:58;;;;;;;5.75;3.38;;;;;;;;;;5075547;28;20110;-66
2022/03/23 13:13:23;;;;;;;;;;;;;;;;;;5094016;28;20032;-66
2022/03/23 13:15:49;;;;;;;6.65;4.03;;;;;;;;;;5093609;28;20345;-73
2022/03/23 13:18:14;;;;;;;5.82;4.57;;;;;;;;;;5093619;28;20394;-65
2022/03/23 13:20:48;;;;;;;7.97;4.50;;;;;;;;;;5093689;28;20024;-65
2022/03/23 13:23:17;;;;;;;5.38;3.90;;;;;;;;;;5093538;28;20492;-65
2022/03/23 13:25:43;;;;;;;4.63;3.90;;;;;;;;;;5093630;28;20027;-65
2022/03/23 13:28:13;;;;;;;5.10;4.07;;;;;;;;;;5093484;28;20474;-65
2022/03/23 13:30:40;;;;;;;6.15;4.13;;;;;;;;;;5093161;28;20116;-65
2022/03/23 13:33:14;;;;;;;7.20;4.47;;;;;;;;;;5075248;28;20043;-65
2022/03/23 13:35:44;;;;;;;7.03;4.32;;;;;;;;;;5092123;28;20434;-65
2022/03/23 13:38:10;;;;;;;10.52;5.32;;;;;;;;;;5075255;28;20461;-65
2022/03/23 13:43:37;;;;;;;8.55;5.50;;;;;;;;;;5048155;28;20411;-65
2022/03/23 13:46:02;;;;;;;7.05;4.10;;;;;;;;;;5074849;28;20032;-65
2022/03/23 13:48:32;;;;;;;8.93;4.75;;;;;;;;;;5093539;28;20033;-65
2022/03/23 13:50:58;;;;;;;9.02;5.38;;;;;;;;;;5093262;28;20485;-65
2022/03/23 13:53:24;;;;;;;8.93;4.70;;;;;;;;;;5075238;28;20043;-65
2022/03/23 13:55:52;;;;;;;6.93;4.75;;;;;;;;;;5093134;28;20370;-65
2022/03/23 13:58:21;;;;;;;8.15;5.45;;;;;;;;;;5092892;28;20555;-65
2022/03/23 14:00:52;;;;;;;10.68;5.32;;;;;;;;;;5074874;28;20028;-65
2022/03/23 14:03:22;;;;;;;10.02;6.13;;;;;;;;;;5094359;28;20044;-65
2022/03/23 14:06:05;;;;;;;12.80;6.28;;;;;;;;;;5097074;28;20082;-64
2022/03/23 14:08:35;;;;;;;11.75;6.65;;;;;;;;;;5096729;28;20440;-65
2022/03/23 14:11:02;;;;;;;8.95;5.78;;;;;;;;;;5096760;28;20458;-65
2022/03/23 14:13:27;;;;;;;12.00;6.90;;;;;;;;;;5097011;28;20048;-65
2022/03/23 14:15:54;;;;;;;11.93;6.55;;;;;;;;;;5078907;28;20077;-65
2022/03/23 14:18:21;;;;;;;10.98;6.18;;;;;;;;;;5096618;28;20063;-65
2022/03/23 14:20:51;;;;;;;10.77;6.32;;;;;;;;;;5096430;28;20028;-65
2022/03/23 14:23:17;;;;;;;10.75;6.43;;;;;;;;;;5096627;28;20390;-65
2022/03/23 14:25:45;;;;;;;11.05;6.78;;;;;;;;;;5078773;28;20020;-65
2022/03/23 14:28:19;;;;;;;9.43;6.15;;;;;;;;;;5096650;28;20040;-65
2022/03/23 14:30:47;;;;;;;8.30;6.22;;;;;;;;;;5096654;28;20072;-65
2022/03/23 14:33:19;;;;;;;8.50;6.20;;;;;;;;;;5078375;28;20559;-64
2022/03/23 14:35:46;;;;;;;10.23;6.80;;;;;;;;;;5095899;28;20070;-65
2022/03/23 14:38:23;;;;;;;13.10;6.57;;;;;;;;;;5078329;28;20044;-65
2022/03/23 14:40:50;;;;;;;7.03;4.85;;;;;;;;;;5061438;28;20043;-65
2022/03/23 14:43:24;;;;;;;10.00;4.72;;;;;;;;;;5078189;28;20028;-65
2022/03/23 14:45:50;;;;;;;9.43;5.40;;;;;;;;;;5096059;28;20032;-65
2022/03/23 14:48:17;;;;;;;6.68;5.07;;;;;;;;;;5096072;28;20194;-65
2022/03/23 14:50:53;;;;;;;7.00;4.80;;;;;;;;;;5096222;28;20458;-64
2022/03/23 14:53:25;;;;;;;6.97;4.50;;;;;;;;;;5096170;28;20106;-65
2022/03/23 14:55:50;;;;;;;7.53;4.70;;;;;;;;;;5096135;28;20047;-65
2022/03/23 14:58:25;;;;;;;6.35;4.55;;;;;;;;;;5095970;28;20370;-64
2022/03/23 15:00:51;;;;;;;93.57;38.80;;;;;;;;;;5096094;28;20032;-65
2022/03/23 15:03:17;;;;;;;47.70;21.65;;;;;;;;;;5096138;28;20031;-65